sensor_id;sensor_type;location;lat;lon;timestamp;temperature;humidity
55988;DHT22;75964;50.930;4.514;2024-01-30T00:02:12;9.60;86.40
55988;DHT22;75964;50.930;4.514;2024-01-30T00:04:38;9.60;86.30
55988;DHT22;75964;50.930;4.514;2024-01-30T00:07:04;9.60;86.40
55988;DHT22;75964;50.930;4.514;2024-01-30T00:09:30;9.60;86.20
55988;DHT22;75964;50.930;4.514;2024-01-30T00:11:56;9.70;85.90
55988;DHT22;75964;50.930;4.514;2024-01-30T00:14:22;9.70;85.50
55988;DHT22;75964;50.930;4.514;2024-01-30T00:16:48;9.80;85.00
55988;DHT22;75964;50.930;4.514;2024-01-30T00:19:14;9.90;84.50
55988;DHT22;75964;50.930;4.514;2024-01-30T00:21:40;9.80;84.60
55988;DHT22;75964;50.930;4.514;2024-01-30T00:24:06;9.80;85.00
55988;DHT22;75964;50.930;4.514;2024-01-30T00:26:32;9.80;84.80
55988;DHT22;75964;50.930;4.514;2024-01-30T00:28:58;9.80;85.20
55988;DHT22;75964;50.930;4.514;2024-01-30T00:31:24;9.80;85.10
55988;DHT22;75964;50.930;4.514;2024-01-30T00:33:50;9.80;85.20
55988;DHT22;75964;50.930;4.514;2024-01-30T00:36:16;9.80;85.10
55988;DHT22;75964;50.930;4.514;2024-01-30T00:38:41;9.90;84.80
55988;DHT22;75964;50.930;4.514;2024-01-30T00:41:11;9.90;84.60
55988;DHT22;75964;50.930;4.514;2024-01-30T00:43:37;9.90;84.50
55988;DHT22;75964;50.930;4.514;2024-01-30T00:46:03;9.90;84.60
55988;DHT22;75964;50.930;4.514;2024-01-30T00:48:28;9.90;84.50
55988;DHT22;75964;50.930;4.514;2024-01-30T00:50:54;9.90;84.50
55988;DHT22;75964;50.930;4.514;2024-01-30T00:53:20;9.90;84.10
55988;DHT22;75964;50.930;4.514;2024-01-30T00:55:46;10.00;84.40
55988;DHT22;75964;50.930;4.514;2024-01-30T00:58:12;10.00;83.90
55988;DHT22;75964;50.930;4.514;2024-01-30T01:00:38;10.10;83.90
55988;DHT22;75964;50.930;4.514;2024-01-30T01:03:04;10.10;83.70
55988;DHT22;75964;50.930;4.514;2024-01-30T01:05:30;10.10;83.70
55988;DHT22;75964;50.930;4.514;2024-01-30T01:07:55;10.10;83.70
55988;DHT22;75964;50.930;4.514;2024-01-30T01:10:21;10.20;83.20
55988;DHT22;75964;50.930;4.514;2024-01-30T01:12:48;10.30;83.10
55988;DHT22;75964;50.930;4.514;2024-01-30T01:15:14;10.30;82.90
55988;DHT22;75964;50.930;4.514;2024-01-30T01:17:40;10.40;82.70
55988;DHT22;75964;50.930;4.514;2024-01-30T01:20:07;10.50;82.60
55988;DHT22;75964;50.930;4.514;2024-01-30T01:22:33;10.40;82.60
55988;DHT22;75964;50.930;4.514;2024-01-30T01:25:00;10.40;82.50
55988;DHT22;75964;50.930;4.514;2024-01-30T01:27:26;10.40;82.30
55988;DHT22;75964;50.930;4.514;2024-01-30T01:29:52;10.60;82.10
55988;DHT22;75964;50.930;4.514;2024-01-30T01:32:18;10.50;81.80
55988;DHT22;75964;50.930;4.514;2024-01-30T01:34:44;10.40;82.20
55988;DHT22;75964;50.930;4.514;2024-01-30T01:37:10;10.40;82.20
55988;DHT22;75964;50.930;4.514;2024-01-30T01:39:36;10.50;82.40
55988;DHT22;75964;50.930;4.514;2024-01-30T01:42:02;10.50;82.20
55988;DHT22;75964;50.930;4.514;2024-01-30T01:44:28;10.50;82.30
55988;DHT22;75964;50.930;4.514;2024-01-30T01:46:54;10.40;82.30
55988;DHT22;75964;50.930;4.514;2024-01-30T01:49:22;10.50;82.30
55988;DHT22;75964;50.930;4.514;2024-01-30T01:51:48;10.40;82.30
55988;DHT22;75964;50.930;4.514;2024-01-30T01:54:14;10.40;82.50
55988;DHT22;75964;50.930;4.514;2024-01-30T01:56:42;10.40;82.30
55988;DHT22;75964;50.930;4.514;2024-01-30T01:59:08;10.40;82.30
55988;DHT22;75964;50.930;4.514;2024-01-30T02:01:37;10.40;82.40
55988;DHT22;75964;50.930;4.514;2024-01-30T02:04:04;10.30;82.60
55988;DHT22;75964;50.930;4.514;2024-01-30T02:06:29;10.30;82.90
55988;DHT22;75964;50.930;4.514;2024-01-30T02:08:55;10.30;82.80
55988;DHT22;75964;50.930;4.514;2024-01-30T02:11:22;10.00;83.70
55988;DHT22;75964;50.930;4.514;2024-01-30T02:13:49;10.10;83.90
55988;DHT22;75964;50.930;4.514;2024-01-30T02:16:15;10.10;83.70
55988;DHT22;75964;50.930;4.514;2024-01-30T02:18:42;10.00;84.10
55988;DHT22;75964;50.930;4.514;2024-01-30T02:21:11;9.80;84.50
55988;DHT22;75964;50.930;4.514;2024-01-30T02:23:38;9.70;85.20
55988;DHT22;75964;50.930;4.514;2024-01-30T02:26:05;9.70;85.40
55988;DHT22;75964;50.930;4.514;2024-01-30T02:28:30;9.80;85.30
55988;DHT22;75964;50.930;4.514;2024-01-30T02:30:56;9.80;84.70
55988;DHT22;75964;50.930;4.514;2024-01-30T02:33:21;9.90;84.40
55988;DHT22;75964;50.930;4.514;2024-01-30T02:35:48;9.90;84.90
55988;DHT22;75964;50.930;4.514;2024-01-30T02:38:15;9.70;85.50
55988;DHT22;75964;50.930;4.514;2024-01-30T02:40:41;9.60;85.60
55988;DHT22;75964;50.930;4.514;2024-01-30T02:43:07;9.50;86.00
55988;DHT22;75964;50.930;4.514;2024-01-30T02:45:33;9.50;86.10
55988;DHT22;75964;50.930;4.514;2024-01-30T02:47:58;9.60;85.90
55988;DHT22;75964;50.930;4.514;2024-01-30T02:50:24;9.50;85.90
55988;DHT22;75964;50.930;4.514;2024-01-30T02:52:50;9.40;86.80
55988;DHT22;75964;50.930;4.514;2024-01-30T02:55:15;9.40;87.10
55988;DHT22;75964;50.930;4.514;2024-01-30T02:57:43;9.40;87.50
55988;DHT22;75964;50.930;4.514;2024-01-30T03:00:09;9.40;88.00
55988;DHT22;75964;50.930;4.514;2024-01-30T03:02:36;9.40;88.20
55988;DHT22;75964;50.930;4.514;2024-01-30T03:05:02;9.50;88.50
55988;DHT22;75964;50.930;4.514;2024-01-30T03:07:29;9.60;87.80
55988;DHT22;75964;50.930;4.514;2024-01-30T03:09:55;9.70;88.00
55988;DHT22;75964;50.930;4.514;2024-01-30T03:12:21;9.70;88.20
55988;DHT22;75964;50.930;4.514;2024-01-30T03:14:47;9.60;88.50
55988;DHT22;75964;50.930;4.514;2024-01-30T03:17:13;9.70;88.60
55988;DHT22;75964;50.930;4.514;2024-01-30T03:19:39;9.70;88.20
55988;DHT22;75964;50.930;4.514;2024-01-30T03:22:04;9.70;88.50
55988;DHT22;75964;50.930;4.514;2024-01-30T03:24:30;9.90;87.50
55988;DHT22;75964;50.930;4.514;2024-01-30T03:26:56;9.90;87.30
55988;DHT22;75964;50.930;4.514;2024-01-30T03:29:21;9.80;87.80
55988;DHT22;75964;50.930;4.514;2024-01-30T03:31:47;10.00;87.80
55988;DHT22;75964;50.930;4.514;2024-01-30T03:34:13;10.00;87.40
55988;DHT22;75964;50.930;4.514;2024-01-30T03:36:39;10.00;87.50
55988;DHT22;75964;50.930;4.514;2024-01-30T03:39:04;9.90;87.90
55988;DHT22;75964;50.930;4.514;2024-01-30T03:41:33;10.00;87.70
55988;DHT22;75964;50.930;4.514;2024-01-30T03:43:59;10.10;87.50
55988;DHT22;75964;50.930;4.514;2024-01-30T03:46:24;10.00;88.00
55988;DHT22;75964;50.930;4.514;2024-01-30T03:48:50;10.00;88.20
55988;DHT22;75964;50.930;4.514;2024-01-30T03:51:16;10.00;88.20
55988;DHT22;75964;50.930;4.514;2024-01-30T03:53:42;10.00;88.00
55988;DHT22;75964;50.930;4.514;2024-01-30T03:56:09;10.00;88.10
55988;DHT22;75964;50.930;4.514;2024-01-30T03:58:34;10.00;88.20
55988;DHT22;75964;50.930;4.514;2024-01-30T04:01:00;10.00;88.50
55988;DHT22;75964;50.930;4.514;2024-01-30T04:03:26;10.00;88.40
55988;DHT22;75964;50.930;4.514;2024-01-30T04:05:52;10.00;88.40
55988;DHT22;75964;50.930;4.514;2024-01-30T04:08:18;10.00;88.20
55988;DHT22;75964;50.930;4.514;2024-01-30T04:10:44;10.10;88.20
55988;DHT22;75964;50.930;4.514;2024-01-30T04:13:09;10.10;87.90
55988;DHT22;75964;50.930;4.514;2024-01-30T04:15:35;10.10;87.70
55988;DHT22;75964;50.930;4.514;2024-01-30T04:18:01;10.10;87.80
55988;DHT22;75964;50.930;4.514;2024-01-30T04:20:27;10.10;87.80
55988;DHT22;75964;50.930;4.514;2024-01-30T04:22:52;10.10;87.70
55988;DHT22;75964;50.930;4.514;2024-01-30T04:25:18;10.10;87.80
55988;DHT22;75964;50.930;4.514;2024-01-30T04:27:44;10.10;87.80
55988;DHT22;75964;50.930;4.514;2024-01-30T04:30:10;10.10;87.70
55988;DHT22;75964;50.930;4.514;2024-01-30T04:32:36;10.10;87.70
55988;DHT22;75964;50.930;4.514;2024-01-30T04:35:02;10.10;87.60
55988;DHT22;75964;50.930;4.514;2024-01-30T04:37:28;10.10;87.50
55988;DHT22;75964;50.930;4.514;2024-01-30T04:39:54;10.20;87.50
55988;DHT22;75964;50.930;4.514;2024-01-30T04:42:20;10.20;87.20
55988;DHT22;75964;50.930;4.514;2024-01-30T04:44:45;10.20;87.40
55988;DHT22;75964;50.930;4.514;2024-01-30T04:47:11;10.20;87.30
55988;DHT22;75964;50.930;4.514;2024-01-30T04:49:39;10.20;87.30
55988;DHT22;75964;50.930;4.514;2024-01-30T04:52:08;10.20;87.30
55988;DHT22;75964;50.930;4.514;2024-01-30T04:54:34;10.30;87.40
55988;DHT22;75964;50.930;4.514;2024-01-30T04:57:03;10.30;87.30
55988;DHT22;75964;50.930;4.514;2024-01-30T04:59:31;10.30;87.40
55988;DHT22;75964;50.930;4.514;2024-01-30T05:01:56;10.30;87.30
55988;DHT22;75964;50.930;4.514;2024-01-30T05:04:22;10.30;87.20
55988;DHT22;75964;50.930;4.514;2024-01-30T05:06:48;10.30;86.90
55988;DHT22;75964;50.930;4.514;2024-01-30T05:09:13;10.30;87.00
55988;DHT22;75964;50.930;4.514;2024-01-30T05:11:40;10.20;87.10
55988;DHT22;75964;50.930;4.514;2024-01-30T05:14:06;10.20;87.00
55988;DHT22;75964;50.930;4.514;2024-01-30T05:16:32;10.30;86.90
55988;DHT22;75964;50.930;4.514;2024-01-30T05:18:59;10.30;86.80
55988;DHT22;75964;50.930;4.514;2024-01-30T05:21:24;10.40;86.30
55988;DHT22;75964;50.930;4.514;2024-01-30T05:23:50;10.40;86.10
55988;DHT22;75964;50.930;4.514;2024-01-30T05:26:16;10.40;86.00
55988;DHT22;75964;50.930;4.514;2024-01-30T05:28:42;10.40;85.80
55988;DHT22;75964;50.930;4.514;2024-01-30T05:31:10;10.40;86.00
55988;DHT22;75964;50.930;4.514;2024-01-30T05:33:36;10.30;86.50
55988;DHT22;75964;50.930;4.514;2024-01-30T05:36:02;10.30;86.70
55988;DHT22;75964;50.930;4.514;2024-01-30T05:38:31;10.20;86.80
55988;DHT22;75964;50.930;4.514;2024-01-30T05:40:57;10.30;86.80
55988;DHT22;75964;50.930;4.514;2024-01-30T05:43:24;10.30;86.80
55988;DHT22;75964;50.930;4.514;2024-01-30T05:45:50;10.30;86.30
55988;DHT22;75964;50.930;4.514;2024-01-30T05:48:16;10.30;86.30
55988;DHT22;75964;50.930;4.514;2024-01-30T05:50:44;10.30;87.00
55988;DHT22;75964;50.930;4.514;2024-01-30T05:53:10;10.30;86.60
55988;DHT22;75964;50.930;4.514;2024-01-30T05:55:36;10.40;86.30
55988;DHT22;75964;50.930;4.514;2024-01-30T05:58:02;10.30;86.30
55988;DHT22;75964;50.930;4.514;2024-01-30T06:00:28;10.40;86.30
55988;DHT22;75964;50.930;4.514;2024-01-30T06:02:53;10.30;86.60
55988;DHT22;75964;50.930;4.514;2024-01-30T06:05:19;10.30;86.80
55988;DHT22;75964;50.930;4.514;2024-01-30T06:07:45;10.40;86.70
55988;DHT22;75964;50.930;4.514;2024-01-30T06:10:10;10.40;86.50
55988;DHT22;75964;50.930;4.514;2024-01-30T06:12:36;10.30;86.40
55988;DHT22;75964;50.930;4.514;2024-01-30T06:15:02;10.30;86.80
55988;DHT22;75964;50.930;4.514;2024-01-30T06:17:28;10.20;87.20
55988;DHT22;75964;50.930;4.514;2024-01-30T06:19:54;10.20;87.30
55988;DHT22;75964;50.930;4.514;2024-01-30T06:22:19;10.20;87.30
55988;DHT22;75964;50.930;4.514;2024-01-30T06:24:45;10.20;87.50
55988;DHT22;75964;50.930;4.514;2024-01-30T06:27:13;10.30;87.50
55988;DHT22;75964;50.930;4.514;2024-01-30T06:29:39;10.30;87.60
55988;DHT22;75964;50.930;4.514;2024-01-30T06:32:05;10.20;87.50
55988;DHT22;75964;50.930;4.514;2024-01-30T06:34:31;10.30;87.60
55988;DHT22;75964;50.930;4.514;2024-01-30T06:36:57;10.30;87.20
55988;DHT22;75964;50.930;4.514;2024-01-30T06:39:22;10.30;87.10
55988;DHT22;75964;50.930;4.514;2024-01-30T06:41:48;10.30;87.10
55988;DHT22;75964;50.930;4.514;2024-01-30T06:44:14;10.30;86.70
55988;DHT22;75964;50.930;4.514;2024-01-30T06:46:40;10.40;86.80
55988;DHT22;75964;50.930;4.514;2024-01-30T06:49:06;10.50;86.40
55988;DHT22;75964;50.930;4.514;2024-01-30T06:51:32;10.50;86.60
55988;DHT22;75964;50.930;4.514;2024-01-30T06:53:57;10.50;86.40
55988;DHT22;75964;50.930;4.514;2024-01-30T06:56:23;10.50;86.30
55988;DHT22;75964;50.930;4.514;2024-01-30T06:58:49;10.70;85.90
55988;DHT22;75964;50.930;4.514;2024-01-30T07:01:15;10.60;85.60
55988;DHT22;75964;50.930;4.514;2024-01-30T07:03:41;10.60;85.80
55988;DHT22;75964;50.930;4.514;2024-01-30T07:06:08;10.70;85.80
55988;DHT22;75964;50.930;4.514;2024-01-30T07:08:34;10.70;85.40
55988;DHT22;75964;50.930;4.514;2024-01-30T07:11:00;10.50;86.10
55988;DHT22;75964;50.930;4.514;2024-01-30T07:13:25;10.40;86.70
55988;DHT22;75964;50.930;4.514;2024-01-30T07:15:51;10.40;86.40
55988;DHT22;75964;50.930;4.514;2024-01-30T07:18:17;10.60;86.20
55988;DHT22;75964;50.930;4.514;2024-01-30T07:20:42;10.60;85.80
55988;DHT22;75964;50.930;4.514;2024-01-30T07:23:13;10.50;86.20
55988;DHT22;75964;50.930;4.514;2024-01-30T07:25:41;10.60;86.30
55988;DHT22;75964;50.930;4.514;2024-01-30T07:28:10;10.60;86.60
55988;DHT22;75964;50.930;4.514;2024-01-30T07:30:36;10.60;86.30
55988;DHT22;75964;50.930;4.514;2024-01-30T07:33:02;10.70;86.20
55988;DHT22;75964;50.930;4.514;2024-01-30T07:35:28;10.70;86.00
55988;DHT22;75964;50.930;4.514;2024-01-30T07:37:53;10.70;86.60
55988;DHT22;75964;50.930;4.514;2024-01-30T07:40:19;10.60;86.80
55988;DHT22;75964;50.930;4.514;2024-01-30T07:42:45;10.70;86.90
55988;DHT22;75964;50.930;4.514;2024-01-30T07:45:11;10.70;86.90
55988;DHT22;75964;50.930;4.514;2024-01-30T07:47:36;10.80;86.70
55988;DHT22;75964;50.930;4.514;2024-01-30T07:50:02;10.80;86.60
55988;DHT22;75964;50.930;4.514;2024-01-30T07:52:28;10.80;86.50
55988;DHT22;75964;50.930;4.514;2024-01-30T07:54:54;10.90;86.20
55988;DHT22;75964;50.930;4.514;2024-01-30T07:57:20;10.90;86.30
55988;DHT22;75964;50.930;4.514;2024-01-30T07:59:46;11.00;85.90
55988;DHT22;75964;50.930;4.514;2024-01-30T08:02:13;11.00;86.00
55988;DHT22;75964;50.930;4.514;2024-01-30T08:04:38;11.00;86.40
55988;DHT22;75964;50.930;4.514;2024-01-30T08:07:04;11.00;86.40
55988;DHT22;75964;50.930;4.514;2024-01-30T08:09:30;11.00;86.60
55988;DHT22;75964;50.930;4.514;2024-01-30T08:11:55;11.10;86.30
55988;DHT22;75964;50.930;4.514;2024-01-30T08:14:21;11.30;85.70
55988;DHT22;75964;50.930;4.514;2024-01-30T08:16:47;11.20;85.60
55988;DHT22;75964;50.930;4.514;2024-01-30T08:19:14;11.20;85.60
55988;DHT22;75964;50.930;4.514;2024-01-30T08:21:40;11.20;86.30
55988;DHT22;75964;50.930;4.514;2024-01-30T08:24:06;11.30;85.60
55988;DHT22;75964;50.930;4.514;2024-01-30T08:26:33;11.30;86.20
55988;DHT22;75964;50.930;4.514;2024-01-30T08:28:59;11.40;86.30
55988;DHT22;75964;50.930;4.514;2024-01-30T08:31:25;11.50;85.90
55988;DHT22;75964;50.930;4.514;2024-01-30T08:33:50;11.50;85.80
55988;DHT22;75964;50.930;4.514;2024-01-30T08:36:17;11.50;85.90
55988;DHT22;75964;50.930;4.514;2024-01-30T08:38:43;11.50;86.60
55988;DHT22;75964;50.930;4.514;2024-01-30T08:41:08;11.50;86.50
55988;DHT22;75964;50.930;4.514;2024-01-30T08:43:34;11.60;86.40
55988;DHT22;75964;50.930;4.514;2024-01-30T08:46:00;11.60;86.00
55988;DHT22;75964;50.930;4.514;2024-01-30T08:48:26;11.60;86.40
55988;DHT22;75964;50.930;4.514;2024-01-30T08:50:52;11.70;86.20
55988;DHT22;75964;50.930;4.514;2024-01-30T08:53:17;11.80;85.80
55988;DHT22;75964;50.930;4.514;2024-01-30T08:55:44;11.80;85.40
55988;DHT22;75964;50.930;4.514;2024-01-30T08:58:09;11.90;85.00
55988;DHT22;75964;50.930;4.514;2024-01-30T09:00:35;11.90;85.30
55988;DHT22;75964;50.930;4.514;2024-01-30T09:03:01;11.90;85.10
55988;DHT22;75964;50.930;4.514;2024-01-30T09:05:26;11.90;84.90
55988;DHT22;75964;50.930;4.514;2024-01-30T09:07:52;11.80;85.50
55988;DHT22;75964;50.930;4.514;2024-01-30T09:10:18;11.70;85.80
55988;DHT22;75964;50.930;4.514;2024-01-30T09:12:43;11.90;85.80
55988;DHT22;75964;50.930;4.514;2024-01-30T09:15:09;11.80;85.50
55988;DHT22;75964;50.930;4.514;2024-01-30T09:17:35;11.80;85.60
55988;DHT22;75964;50.930;4.514;2024-01-30T09:20:00;11.70;85.40
55988;DHT22;75964;50.930;4.514;2024-01-30T09:22:26;11.80;85.40
55988;DHT22;75964;50.930;4.514;2024-01-30T09:24:52;11.90;85.20
55988;DHT22;75964;50.930;4.514;2024-01-30T09:27:17;11.80;85.20
55988;DHT22;75964;50.930;4.514;2024-01-30T09:29:43;11.90;85.70
55988;DHT22;75964;50.930;4.514;2024-01-30T09:32:09;11.90;85.60
55988;DHT22;75964;50.930;4.514;2024-01-30T09:34:34;11.90;85.30
55988;DHT22;75964;50.930;4.514;2024-01-30T09:37:00;11.80;85.70
55988;DHT22;75964;50.930;4.514;2024-01-30T09:39:26;11.90;85.80
55988;DHT22;75964;50.930;4.514;2024-01-30T09:42:05;11.90;85.90
55988;DHT22;75964;50.930;4.514;2024-01-30T09:44:34;12.10;85.00
55988;DHT22;75964;50.930;4.514;2024-01-30T09:47:01;12.00;84.90
55988;DHT22;75964;50.930;4.514;2024-01-30T09:49:34;12.00;85.30
55988;DHT22;75964;50.930;4.514;2024-01-30T09:52:01;12.00;85.80
55988;DHT22;75964;50.930;4.514;2024-01-30T09:54:30;12.10;85.60
55988;DHT22;75964;50.930;4.514;2024-01-30T09:56:55;12.10;85.60
55988;DHT22;75964;50.930;4.514;2024-01-30T09:59:21;12.00;86.00
55988;DHT22;75964;50.930;4.514;2024-01-30T10:01:47;12.10;86.00
55988;DHT22;75964;50.930;4.514;2024-01-30T10:04:13;12.00;86.10
55988;DHT22;75964;50.930;4.514;2024-01-30T10:06:40;12.10;85.80
55988;DHT22;75964;50.930;4.514;2024-01-30T10:09:06;12.10;86.00
55988;DHT22;75964;50.930;4.514;2024-01-30T10:11:31;12.00;86.60
55988;DHT22;75964;50.930;4.514;2024-01-30T10:13:57;12.00;86.60
55988;DHT22;75964;50.930;4.514;2024-01-30T10:16:23;11.90;86.90
55988;DHT22;75964;50.930;4.514;2024-01-30T10:18:49;12.00;86.80
55988;DHT22;75964;50.930;4.514;2024-01-30T10:21:14;12.00;86.50
55988;DHT22;75964;50.930;4.514;2024-01-30T10:23:40;12.00;86.50
55988;DHT22;75964;50.930;4.514;2024-01-30T10:26:07;11.90;86.70
55988;DHT22;75964;50.930;4.514;2024-01-30T10:28:33;11.90;87.00
55988;DHT22;75964;50.930;4.514;2024-01-30T10:31:00;12.00;87.10
55988;DHT22;75964;50.930;4.514;2024-01-30T10:33:29;12.00;86.80
55988;DHT22;75964;50.930;4.514;2024-01-30T10:36:02;12.00;86.10
55988;DHT22;75964;50.930;4.514;2024-01-30T10:38:29;12.10;86.20
55988;DHT22;75964;50.930;4.514;2024-01-30T10:40:59;11.80;87.10
55988;DHT22;75964;50.930;4.514;2024-01-30T10:43:41;11.80;87.10
55988;DHT22;75964;50.930;4.514;2024-01-30T10:46:13;11.70;87.20
55988;DHT22;75964;50.930;4.514;2024-01-30T10:48:43;11.70;87.70
55988;DHT22;75964;50.930;4.514;2024-01-30T10:51:13;11.70;87.40
55988;DHT22;75964;50.930;4.514;2024-01-30T10:53:39;11.70;87.30
55988;DHT22;75964;50.930;4.514;2024-01-30T10:56:06;11.60;87.10
55988;DHT22;75964;50.930;4.514;2024-01-30T10:58:33;11.60;87.20
55988;DHT22;75964;50.930;4.514;2024-01-30T11:00:59;11.70;87.40
55988;DHT22;75964;50.930;4.514;2024-01-30T11:03:25;11.80;86.90
55988;DHT22;75964;50.930;4.514;2024-01-30T11:05:52;11.80;87.20
55988;DHT22;75964;50.930;4.514;2024-01-30T11:08:24;11.90;86.20
55988;DHT22;75964;50.930;4.514;2024-01-30T11:10:55;11.90;85.70
55988;DHT22;75964;50.930;4.514;2024-01-30T11:13:21;11.90;85.60
55988;DHT22;75964;50.930;4.514;2024-01-30T11:15:48;11.90;84.90
55988;DHT22;75964;50.930;4.514;2024-01-30T11:18:26;11.80;84.60
55988;DHT22;75964;50.930;4.514;2024-01-30T11:20:56;11.60;85.80
55988;DHT22;75964;50.930;4.514;2024-01-30T11:23:22;11.70;84.20
55988;DHT22;75964;50.930;4.514;2024-01-30T11:25:48;11.70;84.70
55988;DHT22;75964;50.930;4.514;2024-01-30T11:28:15;11.70;85.30
55988;DHT22;75964;50.930;4.514;2024-01-30T11:30:42;11.50;84.00
55988;DHT22;75964;50.930;4.514;2024-01-30T11:33:12;11.60;83.10
55988;DHT22;75964;50.930;4.514;2024-01-30T11:35:39;11.40;81.40
55988;DHT22;75964;50.930;4.514;2024-01-30T11:38:06;11.30;81.40
55988;DHT22;75964;50.930;4.514;2024-01-30T11:40:32;11.40;79.80
55988;DHT22;75964;50.930;4.514;2024-01-30T11:42:59;11.40;79.50
55988;DHT22;75964;50.930;4.514;2024-01-30T11:45:29;11.40;78.50
55988;DHT22;75964;50.930;4.514;2024-01-30T11:47:55;11.50;77.80
55988;DHT22;75964;50.930;4.514;2024-01-30T11:50:21;11.40;77.50
55988;DHT22;75964;50.930;4.514;2024-01-30T11:52:47;11.30;77.60
55988;DHT22;75964;50.930;4.514;2024-01-30T11:55:14;11.30;76.60
55988;DHT22;75964;50.930;4.514;2024-01-30T11:57:40;11.20;77.00
55988;DHT22;75964;50.930;4.514;2024-01-30T12:00:13;11.30;76.40
55988;DHT22;75964;50.930;4.514;2024-01-30T12:02:40;11.40;75.50
55988;DHT22;75964;50.930;4.514;2024-01-30T12:05:06;11.40;73.90
55988;DHT22;75964;50.930;4.514;2024-01-30T12:07:32;11.40;74.30
55988;DHT22;75964;50.930;4.514;2024-01-30T12:09:58;11.40;73.00
55988;DHT22;75964;50.930;4.514;2024-01-30T12:12:25;11.30;73.20
55988;DHT22;75964;50.930;4.514;2024-01-30T12:14:51;11.30;73.20
55988;DHT22;75964;50.930;4.514;2024-01-30T12:17:29;11.10;73.90
55988;DHT22;75964;50.930;4.514;2024-01-30T12:20:11;11.20;72.90
55988;DHT22;75964;50.930;4.514;2024-01-30T12:22:41;11.20;73.40
55988;DHT22;75964;50.930;4.514;2024-01-30T12:25:11;11.20;73.20
55988;DHT22;75964;50.930;4.514;2024-01-30T12:27:38;11.30;73.30
55988;DHT22;75964;50.930;4.514;2024-01-30T12:32:54;11.40;73.10
55988;DHT22;75964;50.930;4.514;2024-01-30T12:35:21;11.40;73.10
55988;DHT22;75964;50.930;4.514;2024-01-30T12:37:48;11.30;73.00
55988;DHT22;75964;50.930;4.514;2024-01-30T12:40:14;11.30;73.30
55988;DHT22;75964;50.930;4.514;2024-01-30T12:42:46;11.40;73.30
55988;DHT22;75964;50.930;4.514;2024-01-30T12:45:14;11.40;73.20
55988;DHT22;75964;50.930;4.514;2024-01-30T12:47:41;11.50;72.90
55988;DHT22;75964;50.930;4.514;2024-01-30T12:50:07;11.60;73.00
55988;DHT22;75964;50.930;4.514;2024-01-30T12:52:35;11.60;71.60
55988;DHT22;75964;50.930;4.514;2024-01-30T12:55:01;11.70;72.20
55988;DHT22;75964;50.930;4.514;2024-01-30T12:57:26;11.60;72.00
55988;DHT22;75964;50.930;4.514;2024-01-30T12:59:52;11.70;72.70
55988;DHT22;75964;50.930;4.514;2024-01-30T13:02:18;11.50;72.80
55988;DHT22;75964;50.930;4.514;2024-01-30T13:04:44;11.40;73.40
55988;DHT22;75964;50.930;4.514;2024-01-30T13:07:09;11.40;72.60
55988;DHT22;75964;50.930;4.514;2024-01-30T13:09:35;11.30;72.20
55988;DHT22;75964;50.930;4.514;2024-01-30T13:12:01;10.90;72.60
55988;DHT22;75964;50.930;4.514;2024-01-30T13:14:27;10.90;72.90
55988;DHT22;75964;50.930;4.514;2024-01-30T13:16:53;10.80;73.50
55988;DHT22;75964;50.930;4.514;2024-01-30T13:19:18;10.70;73.00
55988;DHT22;75964;50.930;4.514;2024-01-30T13:21:44;10.90;73.10
55988;DHT22;75964;50.930;4.514;2024-01-30T13:24:10;11.20;71.90
55988;DHT22;75964;50.930;4.514;2024-01-30T13:26:36;11.40;71.50
55988;DHT22;75964;50.930;4.514;2024-01-30T13:29:01;11.70;68.80
55988;DHT22;75964;50.930;4.514;2024-01-30T13:31:28;11.90;69.80
55988;DHT22;75964;50.930;4.514;2024-01-30T13:33:54;11.90;68.10
55988;DHT22;75964;50.930;4.514;2024-01-30T13:36:20;11.90;68.30
55988;DHT22;75964;50.930;4.514;2024-01-30T13:38:46;11.90;66.80
55988;DHT22;75964;50.930;4.514;2024-01-30T13:41:12;12.00;67.40
55988;DHT22;75964;50.930;4.514;2024-01-30T13:43:38;12.00;67.60
55988;DHT22;75964;50.930;4.514;2024-01-30T13:46:03;12.00;67.30
55988;DHT22;75964;50.930;4.514;2024-01-30T13:48:30;12.10;66.90
55988;DHT22;75964;50.930;4.514;2024-01-30T13:50:56;12.10;67.30
55988;DHT22;75964;50.930;4.514;2024-01-30T13:53:22;12.20;68.30
55988;DHT22;75964;50.930;4.514;2024-01-30T13:55:47;12.00;69.20
55988;DHT22;75964;50.930;4.514;2024-01-30T13:58:13;11.80;70.30
55988;DHT22;75964;50.930;4.514;2024-01-30T14:00:39;11.90;70.40
55988;DHT22;75964;50.930;4.514;2024-01-30T14:03:04;11.70;70.40
55988;DHT22;75964;50.930;4.514;2024-01-30T14:05:31;11.70;70.70
55988;DHT22;75964;50.930;4.514;2024-01-30T14:07:57;11.60;71.80
55988;DHT22;75964;50.930;4.514;2024-01-30T14:10:23;11.50;71.70
55988;DHT22;75964;50.930;4.514;2024-01-30T14:12:49;11.40;72.40
55988;DHT22;75964;50.930;4.514;2024-01-30T14:15:15;11.40;72.00
55988;DHT22;75964;50.930;4.514;2024-01-30T14:17:43;11.20;73.20
55988;DHT22;75964;50.930;4.514;2024-01-30T14:20:09;11.20;73.70
55988;DHT22;75964;50.930;4.514;2024-01-30T14:22:36;11.20;74.40
55988;DHT22;75964;50.930;4.514;2024-01-30T14:25:02;11.20;74.60
55988;DHT22;75964;50.930;4.514;2024-01-30T14:27:31;11.00;74.20
55988;DHT22;75964;50.930;4.514;2024-01-30T14:29:58;11.00;75.50
55988;DHT22;75964;50.930;4.514;2024-01-30T14:32:24;11.00;75.20
55988;DHT22;75964;50.930;4.514;2024-01-30T14:34:51;10.80;75.60
55988;DHT22;75964;50.930;4.514;2024-01-30T14:37:18;10.80;75.60
55988;DHT22;75964;50.930;4.514;2024-01-30T14:39:44;10.60;76.40
55988;DHT22;75964;50.930;4.514;2024-01-30T14:42:09;10.70;77.20
55988;DHT22;75964;50.930;4.514;2024-01-30T14:44:35;10.60;77.50
55988;DHT22;75964;50.930;4.514;2024-01-30T14:47:01;10.80;76.40
55988;DHT22;75964;50.930;4.514;2024-01-30T14:49:27;10.60;77.20
55988;DHT22;75964;50.930;4.514;2024-01-30T14:51:53;10.60;77.20
55988;DHT22;75964;50.930;4.514;2024-01-30T14:54:19;10.60;77.30
55988;DHT22;75964;50.930;4.514;2024-01-30T14:56:45;10.60;77.70
55988;DHT22;75964;50.930;4.514;2024-01-30T14:59:11;10.60;77.20
55988;DHT22;75964;50.930;4.514;2024-01-30T15:01:36;10.60;76.90
55988;DHT22;75964;50.930;4.514;2024-01-30T15:04:02;10.60;76.80
55988;DHT22;75964;50.930;4.514;2024-01-30T15:06:29;10.50;77.00
55988;DHT22;75964;50.930;4.514;2024-01-30T15:08:54;10.30;78.10
55988;DHT22;75964;50.930;4.514;2024-01-30T15:11:20;10.20;78.10
55988;DHT22;75964;50.930;4.514;2024-01-30T15:13:46;10.30;78.30
55988;DHT22;75964;50.930;4.514;2024-01-30T15:16:12;10.40;78.10
55988;DHT22;75964;50.930;4.514;2024-01-30T15:18:37;10.50;76.90
55988;DHT22;75964;50.930;4.514;2024-01-30T15:21:03;10.40;77.00
55988;DHT22;75964;50.930;4.514;2024-01-30T15:23:29;10.40;76.60
55988;DHT22;75964;50.930;4.514;2024-01-30T15:25:55;10.50;75.80
55988;DHT22;75964;50.930;4.514;2024-01-30T15:28:33;10.60;75.00
55988;DHT22;75964;50.930;4.514;2024-01-30T15:31:00;10.40;74.60